createdAt,value
2018-03-28T00:00:43.025Z,4
2018-03-28T00:01:42.850Z,4
2018-03-28T00:02:42.551Z,4
2018-03-28T00:03:43.073Z,4
2018-03-28T00:04:43.351Z,4
2018-03-28T00:05:43.372Z,4
2018-03-28T00:06:43.122Z,4
2018-03-28T00:07:42.627Z,4
2018-03-28T00:08:43.217Z,4
2018-03-28T00:09:43.165Z,4
2018-03-28T00:10:42.932Z,4
2018-03-28T00:11:43.456Z,4
2018-03-28T00:12:43.262Z,4
2018-03-28T00:13:42.981Z,4
2018-03-28T00:14:43.247Z,4
2018-03-28T00:15:43.009Z,4
2018-03-28T00:16:43.280Z,4
2018-03-28T00:17:43.305Z,4
2018-03-28T00:18:43.309Z,4
2018-03-28T00:19:43.581Z,4
2018-03-28T00:20:43.602Z,4
2018-03-28T00:21:43.362Z,4
2018-03-28T00:22:43.625Z,4
2018-03-28T00:23:43.182Z,4
2018-03-28T00:24:43.668Z,4
2018-03-28T00:25:43.676Z,4
2018-03-28T00:26:43.691Z,4
2018-03-28T00:27:43.465Z,4
2018-03-28T00:28:43.201Z,4
2018-03-28T00:29:43.457Z,4
2018-03-28T00:30:43.754Z,4
2018-03-28T00:31:43.005Z,4
2018-03-28T00:32:43.799Z,4
2018-03-28T00:33:43.550Z,4
2018-03-28T00:34:43.558Z,4
2018-03-28T00:35:43.579Z,4
2018-03-28T00:36:43.844Z,4
2018-03-28T00:37:43.606Z,0
2018-03-28T00:38:43.686Z,0
2018-03-28T00:39:43.140Z,0
2018-03-28T00:40:43.907Z,0
2018-03-28T00:41:43.669Z,0
2018-03-28T00:42:43.925Z,4
2018-03-28T00:43:43.988Z,0
2018-03-28T00:44:43.704Z,4
2018-03-28T00:45:43.984Z,4
2018-03-28T00:46:43.760Z,4
2018-03-28T00:47:44.021Z,4
2018-03-28T00:48:44.033Z,4
2018-03-28T00:49:43.823Z,4
2018-03-28T00:50:43.562Z,4
2018-03-28T00:51:43.830Z,4
2018-03-28T00:52:44.102Z,4
2018-03-28T00:53:43.351Z,4
2018-03-28T00:54:43.614Z,4
2018-03-28T00:55:43.631Z,4
2018-03-28T00:56:43.642Z,4
2018-03-28T00:57:43.925Z,4
2018-03-28T00:58:43.985Z,4
2018-03-28T00:59:43.958Z,4
2018-03-28T01:00:43.452Z,4
2018-03-28T01:01:44.259Z,4
2018-03-28T01:02:43.747Z,4
2018-03-28T01:03:44.263Z,4
2018-03-28T01:04:44.287Z,4
2018-03-28T01:05:44.042Z,4
2018-03-28T01:06:44.057Z,4
2018-03-28T01:07:43.823Z,4
2018-03-28T01:08:44.345Z,4
2018-03-28T01:09:44.107Z,4
2018-03-28T01:10:43.863Z,4
2018-03-28T01:11:44.394Z,4
2018-03-28T01:12:43.897Z,4
2018-03-28T01:13:44.504Z,4
2018-03-28T01:14:44.439Z,4
2018-03-28T01:15:44.209Z,4
2018-03-28T01:16:44.206Z,4
2018-03-28T01:17:44.224Z,4
2018-03-28T01:18:43.733Z,4
2018-03-28T01:19:44.022Z,4
2018-03-28T01:20:44.274Z,4
2018-03-28T01:21:44.542Z,4
2018-03-28T01:22:44.555Z,4
2018-03-28T01:23:44.570Z,4
2018-03-28T01:24:44.648Z,4
2018-03-28T01:25:44.598Z,4
2018-03-28T01:26:44.614Z,4
2018-03-28T01:27:44.629Z,4
2018-03-28T01:28:44.646Z,4
2018-03-28T01:29:44.155Z,4
2018-03-28T01:30:44.676Z,4
2018-03-28T01:31:44.700Z,4
2018-03-28T01:32:44.723Z,4
2018-03-28T01:33:44.462Z,4
2018-03-28T01:34:44.732Z,4
2018-03-28T01:35:44.548Z,4
2018-03-28T01:36:44.771Z,4
2018-03-28T01:37:44.525Z,4
2018-03-28T01:38:44.791Z,4
2018-03-28T01:39:44.872Z,4
2018-03-28T01:40:44.842Z,4
2018-03-28T01:41:44.589Z,4
2018-03-28T01:42:44.853Z,4
2018-03-28T01:43:44.611Z,4
2018-03-28T01:44:44.629Z,4
2018-03-28T01:45:44.647Z,4
2018-03-28T01:46:44.910Z,4
2018-03-28T01:47:44.929Z,4
2018-03-28T01:48:44.690Z,4
2018-03-28T01:49:44.709Z,4
2018-03-28T01:50:45.003Z,4
2018-03-28T01:51:44.987Z,4
2018-03-28T01:52:45.027Z,4
2018-03-28T01:53:44.743Z,4
2018-03-28T01:54:44.559Z,4
2018-03-28T01:55:44.770Z,4
2018-03-28T01:56:45.042Z,4
2018-03-28T01:57:45.062Z,4
2018-03-28T01:58:44.579Z,4
2018-03-28T01:59:44.938Z,4
2018-03-28T02:00:44.848Z,4
2018-03-28T02:01:44.615Z,4
2018-03-28T02:02:45.123Z,4
2018-03-28T02:03:45.146Z,4
2018-03-28T02:04:45.164Z,4
2018-03-28T02:05:44.932Z,4
2018-03-28T02:06:44.950Z,4
2018-03-28T02:07:45.206Z,4
2018-03-28T02:08:44.713Z,4
2018-03-28T02:09:45.313Z,4
2018-03-28T02:10:44.790Z,4
2018-03-28T02:11:45.042Z,4
2018-03-28T02:12:45.322Z,4
2018-03-28T02:13:45.329Z,4
2018-03-28T02:14:45.087Z,4
2018-03-28T02:15:44.593Z,4
2018-03-28T02:16:45.371Z,4
2018-03-28T02:17:45.544Z,4
2018-03-28T02:18:45.412Z,4
2018-03-28T02:19:45.453Z,4
2018-03-28T02:20:45.436Z,4
2018-03-28T02:21:44.951Z,4
2018-03-28T02:22:45.465Z,4
2018-03-28T02:23:45.226Z,4
2018-03-28T02:24:45.033Z,4
2018-03-28T02:25:45.510Z,4
2018-03-28T02:26:45.526Z,4
2018-03-28T02:27:45.545Z,4
2018-03-28T02:28:45.046Z,4
2018-03-28T02:29:45.316Z,4
2018-03-28T02:30:45.097Z,4
2018-03-28T02:31:44.844Z,4
2018-03-28T02:32:45.663Z,4
2018-03-28T02:33:45.650Z,4
2018-03-28T02:34:45.646Z,4
2018-03-28T02:35:45.518Z,4
2018-03-28T02:36:45.433Z,4
2018-03-28T02:37:45.439Z,4
2018-03-28T02:38:45.200Z,4
2018-03-28T02:39:45.470Z,4
2018-03-28T02:40:47.887Z,4
2018-03-28T02:41:45.244Z,4
2018-03-28T02:42:45.006Z,4
2018-03-28T02:43:45.791Z,4
2018-03-28T02:44:45.557Z,4
2018-03-28T02:45:45.836Z,4
2018-03-28T02:46:45.585Z,4
2018-03-28T02:47:45.596Z,4
2018-03-28T02:48:45.864Z,4
2018-03-28T02:49:45.644Z,4
2018-03-28T02:50:45.922Z,4
2018-03-28T02:51:45.665Z,4
2018-03-28T02:52:45.690Z,4
2018-03-28T02:53:45.956Z,4
2018-03-28T02:54:45.964Z,4
2018-03-28T02:55:45.515Z,4
2018-03-28T02:56:45.990Z,4
2018-03-28T02:57:45.498Z,4
2018-03-28T02:58:45.518Z,4
2018-03-28T02:59:46.048Z,4
2018-03-28T03:00:46.108Z,4
2018-03-28T03:01:45.556Z,4
2018-03-28T03:02:45.843Z,4
2018-03-28T03:03:45.864Z,4
2018-03-28T03:04:46.115Z,4
2018-03-28T03:05:45.637Z,4
2018-03-28T03:06:46.144Z,4
2018-03-28T03:07:45.914Z,4
2018-03-28T03:08:46.182Z,4
2018-03-28T03:09:46.182Z,4
2018-03-28T03:10:46.201Z,4
2018-03-28T03:11:46.210Z,4
2018-03-28T03:12:46.230Z,4
2018-03-28T03:13:46.351Z,4
2018-03-28T03:14:46.259Z,4
2018-03-28T03:15:46.073Z,4
2018-03-28T03:16:45.786Z,4
2018-03-28T03:17:46.057Z,4
2018-03-28T03:18:45.821Z,4
2018-03-28T03:19:46.088Z,4
2018-03-28T03:20:46.102Z,4
2018-03-28T03:21:46.118Z,4
2018-03-28T03:22:46.133Z,4
2018-03-28T03:23:46.390Z,4
2018-03-28T03:24:46.409Z,4
2018-03-28T03:25:46.171Z,4
2018-03-28T03:26:46.192Z,4
2018-03-28T03:27:46.215Z,4
2018-03-28T03:28:46.225Z,4
2018-03-28T03:29:46.489Z,4
2018-03-28T03:30:46.260Z,4
2018-03-28T03:31:46.302Z,4
2018-03-28T03:32:46.286Z,4
2018-03-28T03:33:46.303Z,4
2018-03-28T03:34:46.334Z,4
2018-03-28T03:35:46.328Z,4
2018-03-28T03:36:46.346Z,4
2018-03-28T03:37:46.614Z,4
2018-03-28T03:38:46.631Z,4
2018-03-28T03:39:46.407Z,4
2018-03-28T03:40:46.150Z,4
2018-03-28T03:41:46.673Z,4
2018-03-28T03:42:45.928Z,4
2018-03-28T03:43:46.450Z,4
2018-03-28T03:44:46.733Z,4
2018-03-28T03:45:46.479Z,4
2018-03-28T03:46:45.985Z,4
2018-03-28T03:47:46.513Z,4
2018-03-28T03:48:46.829Z,4
2018-03-28T03:49:46.286Z,4
2018-03-28T03:50:46.557Z,4
2018-03-28T03:51:46.824Z,4
2018-03-28T03:52:46.591Z,4
2018-03-28T03:53:46.853Z,4
2018-03-28T03:54:46.629Z,4
2018-03-28T03:55:46.882Z,4
2018-03-28T03:56:46.397Z,4
2018-03-28T03:57:46.912Z,4
2018-03-28T03:58:46.959Z,4
2018-03-28T03:59:46.442Z,0
2018-03-28T04:00:46.447Z,0
2018-03-28T04:01:46.468Z,4
2018-03-28T04:02:46.484Z,4
2018-03-28T04:03:46.757Z,4
2018-03-28T04:04:46.771Z,4
2018-03-28T04:05:46.534Z,4
2018-03-28T04:06:46.796Z,4
2018-03-28T04:07:46.813Z,4
2018-03-28T04:08:46.832Z,4
2018-03-28T04:09:46.332Z,0
2018-03-28T04:10:46.860Z,4
2018-03-28T04:11:46.876Z,4
2018-03-28T04:12:47.146Z,4
2018-03-28T04:13:46.641Z,4
2018-03-28T04:14:47.169Z,4
2018-03-28T04:15:46.670Z,4
2018-03-28T04:16:47.248Z,4
2018-03-28T04:17:46.955Z,4
2018-03-28T04:18:46.966Z,4
2018-03-28T04:19:47.236Z,4
2018-03-28T04:20:46.745Z,4
2018-03-28T04:21:48.314Z,4
2018-03-28T04:22:47.284Z,4
2018-03-28T04:23:46.796Z,4
2018-03-28T04:24:47.056Z,4
2018-03-28T04:25:47.347Z,4
2018-03-28T04:26:46.836Z,4
2018-03-28T04:27:47.328Z,4
2018-03-28T04:28:47.125Z,4
2018-03-28T04:29:47.392Z,4
2018-03-28T04:30:47.417Z,4
2018-03-28T04:31:47.477Z,4
2018-03-28T04:32:46.765Z,4
2018-03-28T04:33:47.202Z,4
2018-03-28T04:34:47.476Z,4
2018-03-28T04:35:47.228Z,4
2018-03-28T04:36:47.562Z,4
2018-03-28T04:37:47.513Z,4
2018-03-28T04:38:47.274Z,4
2018-03-28T04:39:47.540Z,4
2018-03-28T04:40:47.557Z,4
2018-03-28T04:41:47.366Z,4
2018-03-28T04:42:47.072Z,4
2018-03-28T04:43:47.462Z,8
2018-03-28T04:44:47.370Z,8
2018-03-28T04:45:47.650Z,8
2018-03-28T04:46:47.143Z,8
2018-03-28T04:47:47.426Z,8
2018-03-28T04:48:47.692Z,12
2018-03-28T04:49:47.698Z,12
2018-03-28T04:50:47.201Z,12
2018-03-28T04:51:47.474Z,16
2018-03-28T04:52:47.740Z,16
2018-03-28T04:53:47.527Z,16
2018-03-28T04:54:47.776Z,24
2018-03-28T04:55:47.693Z,32
2018-03-28T04:56:47.340Z,36
2018-03-28T04:57:47.557Z,40
2018-03-28T04:58:47.820Z,32
2018-03-28T04:59:47.328Z,36
2018-03-28T05:00:47.605Z,56
2018-03-28T05:01:47.865Z,64
2018-03-28T05:02:47.630Z,68
2018-03-28T05:03:47.661Z,76
2018-03-28T05:04:47.935Z,88
2018-03-28T05:05:47.436Z,100
2018-03-28T05:06:47.704Z,96
2018-03-28T05:07:47.723Z,100
2018-03-28T05:08:47.225Z,104
2018-03-28T05:09:47.525Z,120
2018-03-28T05:10:47.766Z,124
2018-03-28T05:11:47.785Z,100
2018-03-28T05:12:47.538Z,96
2018-03-28T05:13:47.838Z,104
2018-03-28T05:14:47.804Z,120
2018-03-28T05:15:48.464Z,136
2018-03-28T05:16:47.851Z,152
2018-03-28T05:17:48.272Z,188
2018-03-28T05:18:48.135Z,180
2018-03-28T05:19:47.649Z,200
2018-03-28T05:20:47.770Z,240
2018-03-28T05:21:47.936Z,256
2018-03-28T05:22:48.462Z,232
2018-03-28T05:23:47.971Z,212
2018-03-28T05:24:47.993Z,236
2018-03-28T05:25:47.996Z,216
2018-03-28T05:26:48.264Z,208
2018-03-28T05:27:48.328Z,212
2018-03-28T05:28:47.788Z,204
2018-03-28T05:29:48.053Z,220
2018-03-28T05:30:47.557Z,252
2018-03-28T05:31:47.826Z,272
2018-03-28T05:32:48.408Z,288
2018-03-28T05:33:47.867Z,336
2018-03-28T05:34:48.182Z,372
2018-03-28T05:35:48.150Z,372
2018-03-28T05:36:48.420Z,364
2018-03-28T05:37:47.973Z,384
2018-03-28T05:38:48.200Z,424
2018-03-28T05:39:48.466Z,452
2018-03-28T05:40:48.226Z,512
2018-03-28T05:41:48.502Z,592
2018-03-28T05:42:48.282Z,684
2018-03-28T05:43:48.529Z,720
2018-03-28T05:44:48.297Z,660
2018-03-28T05:45:48.053Z,636
2018-03-28T05:46:48.071Z,696
2018-03-28T05:47:48.137Z,764
2018-03-28T05:48:48.106Z,840
2018-03-28T05:49:48.422Z,900
2018-03-28T05:50:48.385Z,896
2018-03-28T05:51:48.664Z,856
2018-03-28T05:52:48.424Z,868
2018-03-28T05:53:48.441Z,908
2018-03-28T05:54:48.706Z,960
2018-03-28T05:55:48.731Z,964
2018-03-28T05:56:48.478Z,1036
2018-03-28T05:57:48.512Z,960
2018-03-28T05:58:48.512Z,908
2018-03-28T05:59:48.529Z,964
2018-03-28T06:00:48.560Z,904
2018-03-28T06:01:48.823Z,820
2018-03-28T06:02:48.623Z,852
2018-03-28T06:03:48.838Z,924
2018-03-28T06:04:48.357Z,1008
2018-03-28T06:05:48.623Z,1048
2018-03-28T06:06:48.892Z,1096
2018-03-28T06:07:48.652Z,1036
2018-03-28T06:08:48.417Z,1028
2018-03-28T06:09:48.188Z,1036
2018-03-28T06:10:48.952Z,1068
2018-03-28T06:11:48.715Z,1160
2018-03-28T06:12:48.984Z,1272
2018-03-28T06:13:49.031Z,1280
2018-03-28T06:14:48.510Z,1312
2018-03-28T06:15:48.313Z,1360
2018-03-28T06:16:49.046Z,1376
2018-03-28T06:17:48.862Z,1456
2018-03-28T06:18:48.578Z,1568
2018-03-28T06:19:48.589Z,1668
2018-03-28T06:20:49.128Z,1900
2018-03-28T06:21:48.873Z,2188
2018-03-28T06:22:48.903Z,2476
2018-03-28T06:23:49.173Z,2700
2018-03-28T06:24:48.673Z,2892
2018-03-28T06:25:49.227Z,2880
2018-03-28T06:26:49.201Z,2660
2018-03-28T06:27:49.238Z,2536
2018-03-28T06:28:48.476Z,2588
2018-03-28T06:29:49.005Z,2540
2018-03-28T06:30:49.292Z,2368
2018-03-28T06:31:48.539Z,2508
2018-03-28T06:32:49.098Z,2368
2018-03-28T06:33:49.073Z,2448
2018-03-28T06:34:48.833Z,2676
2018-03-28T06:35:49.355Z,2840
2018-03-28T06:36:49.120Z,2916
2018-03-28T06:37:49.390Z,3004
2018-03-28T06:38:48.893Z,3232
2018-03-28T06:39:48.914Z,3504
2018-03-28T06:40:49.182Z,3688
2018-03-28T06:41:48.685Z,3800
2018-03-28T06:42:49.213Z,3736
2018-03-28T06:43:49.226Z,3488
2018-03-28T06:44:49.500Z,3228
2018-03-28T06:45:49.258Z,3160
2018-03-28T06:46:49.279Z,3044
2018-03-28T06:47:49.044Z,2776
2018-03-28T06:48:49.135Z,2684
2018-03-28T06:49:49.338Z,2784
2018-03-28T06:50:49.353Z,2900
2018-03-28T06:51:49.372Z,3112
2018-03-28T06:52:49.383Z,3472
2018-03-28T06:53:49.396Z,3940
2018-03-28T06:54:49.665Z,4248
2018-03-28T06:55:49.424Z,4240
2018-03-28T06:56:49.685Z,4252
2018-03-28T06:57:49.447Z,4396
2018-03-28T06:58:49.481Z,4580
2018-03-28T06:59:49.557Z,4616
2018-03-28T07:00:49.770Z,4604
2018-03-28T07:01:49.786Z,4848
2018-03-28T07:02:49.802Z,5104
2018-03-28T07:03:49.971Z,4988
2018-03-28T07:04:49.582Z,4876
2018-03-28T07:05:49.355Z,4824
2018-03-28T07:06:49.621Z,4976
2018-03-28T07:07:49.633Z,5164
2018-03-28T07:08:49.904Z,5180
2018-03-28T07:09:49.690Z,5184
2018-03-28T07:10:49.168Z,5184
2018-03-28T07:11:49.684Z,5116
2018-03-28T07:12:49.979Z,5144
2018-03-28T07:13:49.993Z,5128
2018-03-28T07:14:49.503Z,5008
2018-03-28T07:15:50.031Z,5068
2018-03-28T07:16:49.788Z,5176
2018-03-28T07:17:49.806Z,5264
2018-03-28T07:18:49.877Z,5448
2018-03-28T07:19:50.103Z,5628
2018-03-28T07:20:50.225Z,5760
2018-03-28T07:21:50.134Z,5756
2018-03-28T07:22:49.895Z,5720
2018-03-28T07:23:49.655Z,5808
2018-03-28T07:24:49.726Z,5884
2018-03-28T07:25:49.953Z,5872
2018-03-28T07:26:50.224Z,5844
2018-03-28T07:27:50.333Z,5908
2018-03-28T07:28:49.747Z,6064
2018-03-28T07:29:50.017Z,6240
2018-03-28T07:30:49.782Z,6240
2018-03-28T07:31:49.801Z,6168
2018-03-28T07:32:49.561Z,6148
2018-03-28T07:33:49.836Z,6108
2018-03-28T07:34:49.903Z,6164
2018-03-28T07:35:50.125Z,6524
2018-03-28T07:36:49.899Z,6936
2018-03-28T07:37:50.432Z,7380
2018-03-28T07:38:50.193Z,7804
2018-03-28T07:39:50.191Z,8096
2018-03-28T07:40:50.212Z,8284
2018-03-28T07:41:50.292Z,8520
2018-03-28T07:42:50.261Z,8604
2018-03-28T07:43:50.273Z,9448
2018-03-28T07:44:49.785Z,8912
2018-03-28T07:45:50.062Z,9700
2018-03-28T07:46:50.069Z,9544
2018-03-28T07:47:50.604Z,8372
2018-03-28T07:48:50.614Z,8656
2018-03-28T07:49:50.185Z,10156
2018-03-28T07:50:50.138Z,9776
2018-03-28T07:51:50.414Z,8932
2018-03-28T07:52:50.177Z,8876
2018-03-28T07:53:50.711Z,8636
2018-03-28T07:54:50.470Z,8700
2018-03-28T07:55:50.741Z,8712
2018-03-28T07:56:50.771Z,8780
2018-03-28T07:57:50.268Z,8600
2018-03-28T07:58:50.543Z,8744
2018-03-28T07:59:50.566Z,8636
2018-03-28T08:00:50.836Z,8756
2018-03-28T08:01:50.879Z,9304
2018-03-28T08:02:50.622Z,8516
2018-03-28T08:03:50.694Z,8456
2018-03-28T08:04:50.705Z,9168
2018-03-28T08:05:50.671Z,8348
2018-03-28T08:06:50.948Z,9824
2018-03-28T08:07:50.715Z,9536
2018-03-28T08:08:50.726Z,9076
2018-03-28T08:09:50.743Z,9560
2018-03-28T08:10:51.025Z,8568
2018-03-28T08:11:50.792Z,8808
2018-03-28T08:12:51.065Z,9376
2018-03-28T08:13:51.090Z,9604
2018-03-28T08:14:51.091Z,9980
2018-03-28T08:15:50.859Z,9740
2018-03-28T08:16:50.637Z,10096
2018-03-28T08:17:50.644Z,10236
2018-03-28T08:18:51.226Z,10276
2018-03-28T08:19:50.984Z,10372
2018-03-28T08:20:50.698Z,11044
2018-03-28T08:21:50.719Z,10816
2018-03-28T08:22:51.240Z,11532
2018-03-28T08:23:51.013Z,11524
2018-03-28T08:24:50.773Z,8256
2018-03-28T08:25:51.153Z,10696
2018-03-28T08:26:51.066Z,10640
2018-03-28T08:27:50.834Z,8692
2018-03-28T08:28:51.105Z,11532
2018-03-28T08:29:51.384Z,8652
2018-03-28T08:30:51.158Z,8984
2018-03-28T08:31:51.181Z,11088
2018-03-28T08:32:51.577Z,10844
2018-03-28T08:33:51.210Z,10588
2018-03-28T08:34:50.968Z,10548
2018-03-28T08:35:51.244Z,9792
2018-03-28T08:36:51.322Z,10004
2018-03-28T08:37:51.297Z,11968
2018-03-28T08:38:51.558Z,9736
2018-03-28T08:39:51.579Z,11608
2018-03-28T08:40:51.602Z,8324
2018-03-28T08:41:51.356Z,7948
2018-03-28T08:42:51.401Z,8160
2018-03-28T08:43:51.398Z,8904
2018-03-28T08:44:51.669Z,11928
2018-03-28T08:45:51.687Z,11468
2018-03-28T08:46:51.786Z,9712
2018-03-28T08:47:51.728Z,11972
2018-03-28T08:48:51.751Z,10916
2018-03-28T08:49:51.774Z,9548
2018-03-28T08:50:51.535Z,9356
2018-03-28T08:51:51.713Z,10660
2018-03-28T08:52:51.572Z,12800
2018-03-28T08:53:51.852Z,10704
2018-03-28T08:54:51.610Z,11088
2018-03-28T08:55:51.632Z,9376
2018-03-28T08:56:51.927Z,9832
2018-03-28T08:57:51.424Z,9656
2018-03-28T08:58:51.948Z,6700
2018-03-28T08:59:51.986Z,6732
2018-03-28T09:00:51.733Z,6492
2018-03-28T09:01:51.510Z,7008
2018-03-28T09:02:51.774Z,7864
2018-03-28T09:03:51.791Z,8164
2018-03-28T09:04:51.815Z,7624
2018-03-28T09:05:52.084Z,7620
2018-03-28T09:06:51.909Z,7320
2018-03-28T09:07:51.871Z,7564
2018-03-28T09:08:51.892Z,8224
2018-03-28T09:09:51.658Z,8976
2018-03-28T09:10:52.186Z,8108
2018-03-28T09:11:52.200Z,9452
2018-03-28T09:12:52.220Z,10752
2018-03-28T09:13:51.990Z,10772
2018-03-28T09:14:52.009Z,11464
2018-03-28T09:15:52.285Z,12720
2018-03-28T09:16:52.055Z,10940
2018-03-28T09:17:52.075Z,16256
2018-03-28T09:18:52.099Z,12376
2018-03-28T09:19:52.383Z,10864
2018-03-28T09:20:52.390Z,10136
2018-03-28T09:21:52.216Z,9888
2018-03-28T09:22:52.428Z,9100
2018-03-28T09:23:52.444Z,9468
2018-03-28T09:24:51.958Z,9412
2018-03-28T09:25:52.238Z,8780
2018-03-28T09:26:52.004Z,7256
2018-03-28T09:27:52.529Z,7168
2018-03-28T09:28:52.549Z,6576
2018-03-28T09:29:52.318Z,6460
2018-03-28T09:30:52.087Z,6940
2018-03-28T09:31:52.617Z,7308
2018-03-28T09:32:52.630Z,8240
2018-03-28T09:33:52.660Z,7888
2018-03-28T09:34:52.471Z,6380
2018-03-28T09:35:52.709Z,5852
2018-03-28T09:36:52.262Z,5976
2018-03-28T09:37:52.504Z,6364
2018-03-28T09:38:52.759Z,6584
2018-03-28T09:39:52.785Z,7012
2018-03-28T09:40:52.546Z,8436
2018-03-28T09:41:52.729Z,9836
2018-03-28T09:42:52.336Z,10332
2018-03-28T09:43:52.598Z,9440
2018-03-28T09:44:52.877Z,8000
2018-03-28T09:45:52.390Z,7312
2018-03-28T09:46:52.976Z,7768
2018-03-28T09:47:52.435Z,8884
2018-03-28T09:48:52.463Z,9940
2018-03-28T09:49:52.733Z,10300
2018-03-28T09:50:52.500Z,9460
2018-03-28T09:51:52.520Z,10052
2018-03-28T09:52:52.540Z,10372
2018-03-28T09:53:52.811Z,10648
2018-03-28T09:54:52.827Z,11176
2018-03-28T09:55:53.106Z,11608
2018-03-28T09:56:53.174Z,10680
2018-03-28T09:57:52.890Z,8796
2018-03-28T09:58:52.903Z,8152
2018-03-28T09:59:52.423Z,6292
2018-03-28T10:00:52.947Z,6028
2018-03-28T10:01:52.463Z,6084
2018-03-28T10:02:52.749Z,6424
2018-03-28T10:03:52.757Z,6824
2018-03-28T10:04:53.041Z,7584
2018-03-28T10:05:53.051Z,7584
2018-03-28T10:06:53.105Z,7680
2018-03-28T10:07:53.100Z,7688
2018-03-28T10:08:53.444Z,7732
2018-03-28T10:09:53.384Z,8072
2018-03-28T10:10:53.151Z,7648
2018-03-28T10:11:53.071Z,7652
2018-03-28T10:12:53.192Z,7472
2018-03-28T10:13:52.954Z,6672
2018-03-28T10:14:53.231Z,7064
2018-03-28T10:15:53.319Z,7696
2018-03-28T10:16:53.529Z,8080
2018-03-28T10:17:53.299Z,7728
2018-03-28T10:18:53.564Z,7072
2018-03-28T10:19:53.342Z,7092
2018-03-28T10:20:53.096Z,7484
2018-03-28T10:21:53.677Z,8332
2018-03-28T10:22:53.131Z,8688
2018-03-28T10:23:53.659Z,9420
2018-03-28T10:24:53.677Z,9336
2018-03-28T10:25:53.444Z,9224
2018-03-28T10:26:53.768Z,8780
2018-03-28T10:27:53.486Z,8168
2018-03-28T10:28:53.254Z,6268
2018-03-28T10:29:53.973Z,5640
2018-03-28T10:30:53.296Z,5536
2018-03-28T10:31:53.329Z,6072
2018-03-28T10:32:53.331Z,6308
2018-03-28T10:33:53.607Z,6488
2018-03-28T10:34:53.628Z,6532
2018-03-28T10:35:53.633Z,7352
2018-03-28T10:36:53.913Z,9452
2018-03-28T10:37:53.420Z,10648
2018-03-28T10:38:53.442Z,8216
2018-03-28T10:39:53.971Z,7716
2018-03-28T10:40:53.736Z,7672
2018-03-28T10:41:53.801Z,8712
2018-03-28T10:42:53.519Z,9500
2018-03-28T10:43:53.822Z,9212
2018-03-28T10:44:54.080Z,8952
2018-03-28T10:45:53.845Z,9076
2018-03-28T10:46:53.865Z,10984
2018-03-28T10:47:53.885Z,11660
2018-03-28T10:48:53.922Z,10984
2018-03-28T10:49:53.676Z,9904
2018-03-28T10:50:53.679Z,10260
2018-03-28T10:51:53.978Z,11012
2018-03-28T10:52:54.262Z,11344
2018-03-28T10:53:54.015Z,10448
2018-03-28T10:54:54.025Z,9964
2018-03-28T10:55:53.794Z,10184
2018-03-28T10:56:54.125Z,9912
2018-03-28T10:57:54.090Z,10268
2018-03-28T10:58:54.105Z,10080
2018-03-28T10:59:54.375Z,11108
2018-03-28T11:00:54.149Z,11124
2018-03-28T11:01:54.168Z,10852
2018-03-28T11:02:53.927Z,10980
2018-03-28T11:03:54.478Z,11844
2018-03-28T11:04:53.974Z,12728
2018-03-28T11:05:54.234Z,10668
2018-03-28T11:06:53.754Z,9828
2018-03-28T11:07:54.637Z,10284
2018-03-28T11:08:54.504Z,10984
2018-03-28T11:09:54.586Z,11180
2018-03-28T11:10:54.343Z,10912
2018-03-28T11:11:54.674Z,12476
2018-03-28T11:12:54.646Z,13932
2018-03-28T11:13:54.662Z,16128
2018-03-28T11:14:54.174Z,12288
2018-03-28T11:15:54.449Z,13492
2018-03-28T11:16:54.220Z,14832
2018-03-28T11:17:54.495Z,16736
2018-03-28T11:18:54.509Z,15872
2018-03-28T11:19:54.018Z,16544
2018-03-28T11:20:54.295Z,17632
2018-03-28T11:21:54.566Z,13584
2018-03-28T11:22:54.847Z,9676
2018-03-28T11:23:54.865Z,9000
2018-03-28T11:24:54.884Z,7764
2018-03-28T11:25:54.987Z,7904
2018-03-28T11:26:54.666Z,7168
2018-03-28T11:27:55.001Z,6808
2018-03-28T11:28:54.708Z,7516
2018-03-28T11:29:54.728Z,7648
2018-03-28T11:30:54.748Z,7612
2018-03-28T11:31:55.024Z,6932
2018-03-28T11:32:54.284Z,6808
2018-03-28T11:33:54.558Z,6192
2018-03-28T11:34:55.083Z,5440
2018-03-28T11:35:54.591Z,5932
2018-03-28T11:36:54.892Z,7020
2018-03-28T11:37:55.369Z,6916
2018-03-28T11:38:54.919Z,6244
2018-03-28T11:39:54.936Z,7032
2018-03-28T11:40:54.967Z,7540
2018-03-28T11:41:54.975Z,10824
2018-03-28T11:42:54.845Z,14304
2018-03-28T11:43:54.758Z,13608
2018-03-28T11:44:55.059Z,11596
2018-03-28T11:45:55.337Z,10408
2018-03-28T11:46:55.082Z,11592
2018-03-28T11:47:55.152Z,21504
2018-03-28T11:48:54.859Z,13032
2018-03-28T11:49:55.134Z,11672
2018-03-28T11:50:55.149Z,11004
2018-03-28T11:51:55.180Z,10768
2018-03-28T11:52:55.572Z,10432
2018-03-28T11:53:55.217Z,10184
2018-03-28T11:54:55.255Z,10912
2018-03-28T11:55:55.012Z,14596
2018-03-28T11:56:55.535Z,12796
2018-03-28T11:57:55.563Z,12240
2018-03-28T11:58:55.598Z,8520
2018-03-28T11:59:55.091Z,6104
2018-03-28T12:00:55.624Z,4468
2018-03-28T12:01:54.872Z,4088
2018-03-28T12:02:55.460Z,4628
2018-03-28T12:03:55.169Z,4848
2018-03-28T12:04:55.430Z,4440
2018-03-28T12:05:55.707Z,3524
2018-03-28T12:06:55.481Z,2916
2018-03-28T12:07:55.500Z,2884
2018-03-28T12:08:55.524Z,3100
2018-03-28T12:09:55.795Z,3748
2018-03-28T12:10:55.569Z,4404
2018-03-28T12:11:55.080Z,4184
2018-03-28T12:12:55.606Z,3944
2018-03-28T12:13:55.881Z,4204
2018-03-28T12:14:55.947Z,4516
2018-03-28T12:15:55.979Z,4336
2018-03-28T12:16:55.957Z,4116
2018-03-28T12:17:55.502Z,4116
2018-03-28T12:18:55.746Z,3952
2018-03-28T12:19:55.997Z,3944
2018-03-28T12:20:55.509Z,4072
2018-03-28T12:21:56.037Z,4184
2018-03-28T12:22:55.548Z,4268
2018-03-28T12:23:55.825Z,4452
2018-03-28T12:24:56.093Z,5144
2018-03-28T12:25:56.121Z,5512
2018-03-28T12:26:56.216Z,5728
2018-03-28T12:27:55.659Z,6532
2018-03-28T12:28:55.923Z,6724
2018-03-28T12:29:56.196Z,8048
2018-03-28T12:30:55.698Z,10928
2018-03-28T12:31:55.982Z,14920
2018-03-28T12:32:56.291Z,21600
2018-03-28T12:33:56.052Z,16024
2018-03-28T12:34:56.031Z,13712
2018-03-28T12:35:56.330Z,10752
2018-03-28T12:36:56.144Z,9684
2018-03-28T12:37:55.834Z,8056
2018-03-28T12:38:56.355Z,7184
2018-03-28T12:39:56.116Z,7200
2018-03-28T12:40:56.147Z,7396
2018-03-28T12:41:55.932Z,8744
2018-03-28T12:42:56.198Z,8260
2018-03-28T12:43:56.224Z,7544
2018-03-28T12:44:55.988Z,7136
2018-03-28T12:45:56.264Z,7288
2018-03-28T12:46:56.554Z,6844
2018-03-28T12:47:56.606Z,7052
2018-03-28T12:48:56.325Z,5820
2018-03-28T12:49:55.912Z,4728
2018-03-28T12:50:56.750Z,5036
2018-03-28T12:51:56.674Z,5264
2018-03-28T12:52:56.408Z,7368
2018-03-28T12:53:56.177Z,8656
2018-03-28T12:54:56.445Z,10228
2018-03-28T12:55:56.711Z,13556
2018-03-28T12:56:56.226Z,16704
2018-03-28T12:57:56.508Z,20032
2018-03-28T12:58:56.774Z,21856
2018-03-28T12:59:56.764Z,23488
2018-03-28T13:00:56.306Z,22560
2018-03-28T13:01:56.838Z,29376
2018-03-28T13:02:56.617Z,43872
2018-03-28T13:03:56.623Z,24832
2018-03-28T13:04:56.952Z,27872
2018-03-28T13:05:56.665Z,47040
2018-03-28T13:06:56.951Z,32256
2018-03-28T13:07:56.846Z,24736
2018-03-28T13:08:56.823Z,14980
2018-03-28T13:09:57.006Z,14592
2018-03-28T13:10:56.777Z,17952
2018-03-28T13:11:57.067Z,10392
2018-03-28T13:12:57.074Z,8484
2018-03-28T13:13:56.585Z,7244
2018-03-28T13:14:56.604Z,6920
2018-03-28T13:15:56.628Z,6888
2018-03-28T13:16:56.906Z,6812
2018-03-28T13:17:56.935Z,6472
2018-03-28T13:18:56.695Z,6128
2018-03-28T13:19:56.771Z,5596
2018-03-28T13:20:57.252Z,5232
2018-03-28T13:21:56.505Z,5320
2018-03-28T13:22:57.284Z,5072
2018-03-28T13:23:57.310Z,4696
2018-03-28T13:24:57.471Z,4272
2018-03-28T13:25:57.359Z,4176
2018-03-28T13:26:57.124Z,4084
2018-03-28T13:27:57.144Z,4316
2018-03-28T13:28:56.905Z,4852
2018-03-28T13:29:57.483Z,4808
2018-03-28T13:30:57.197Z,4472
2018-03-28T13:31:57.226Z,4216
2018-03-28T13:32:57.493Z,4256
2018-03-28T13:33:57.511Z,4152
2018-03-28T13:34:57.543Z,4080
2018-03-28T13:35:57.046Z,4756
2018-03-28T13:36:57.067Z,5304
2018-03-28T13:37:57.597Z,5376
2018-03-28T13:38:57.612Z,5184
2018-03-28T13:39:57.380Z,5096
2018-03-28T13:40:57.660Z,5084
2018-03-28T13:41:57.166Z,4820
2018-03-28T13:42:57.703Z,4436
2018-03-28T13:43:57.468Z,4348
2018-03-28T13:44:57.022Z,4412
2018-03-28T13:45:57.513Z,4460
2018-03-28T13:46:57.530Z,4412